Time;durP1;ratioP1;P1;durP2;ratioP2;P2;SDS_P1;SDS_P2;PMS_P1;PMS_P2;Temp;Humidity;BMP_temperature;BMP_pressure;BME280_temperature;BME280_humidity;BME280_pressure;Samples;Min_cycle;Max_cycle;Signal;HPM_P1;HPM_P2
2022/06/15 00:02:11;;;;;;;6.33;2.23;;;11.70;99.90;11.00;100531;;;;572909;246;24100;-76
2022/06/15 00:04:36;;;;;;;5.80;3.10;;;11.70;99.90;11.00;100529;;;;581480;240;24103;-73
2022/06/15 00:07:04;;;;;;;5.90;2.53;;;11.70;99.90;11.00;100526;;;;581439;246;24110;-72
2022/06/15 00:09:32;;;;;;;5.23;2.30;;;11.70;99.90;11.10;100535;;;;572772;246;24069;-79
2022/06/15 00:12:00;;;;;;;6.60;2.80;;;11.70;99.90;11.00;100522;;;;581480;246;24079;-78
2022/06/15 00:14:28;;;;;;;7.20;2.77;;;11.70;99.90;11.00;100536;;;;581593;246;24071;-77
2022/06/15 00:16:56;;;;;;;4.23;2.43;;;11.60;99.90;11.00;100530;;;;581388;246;25108;-78
2022/06/15 00:19:24;;;;;;;5.27;2.33;;;11.70;99.90;11.00;100518;;;;581428;246;24108;-82
2022/06/15 00:21:52;;;;;;;2.80;2.60;;;11.70;99.90;11.00;100528;;;;568442;246;24063;-75
2022/06/15 00:24:20;;;;;;;6.67;2.47;;;11.70;99.90;11.00;100522;;;;572666;246;24064;-79
2022/06/15 00:26:48;;;;;;;7.37;2.30;;;11.70;99.90;11.00;100522;;;;581565;246;24075;-74
2022/06/15 00:29:16;;;;;;;5.13;2.30;;;11.60;99.90;11.00;100525;;;;581485;246;24062;-80
2022/06/15 00:31:45;;;;;;;7.33;2.80;;;11.60;99.90;11.00;100522;;;;581637;246;24099;-75
2022/06/15 00:34:14;;;;;;;7.43;3.40;;;11.60;99.90;11.00;100529;;;;581542;246;24095;-80
2022/06/15 00:36:42;;;;;;;9.13;2.90;;;11.60;99.90;11.00;100524;;;;582215;245;24134;-77
2022/06/15 00:39:10;;;;;;;11.23;2.73;;;11.60;99.90;11.00;100525;;;;582829;246;24052;-74
2022/06/15 00:41:38;;;;;;;3.57;1.93;;;11.60;99.90;11.00;100531;;;;569698;246;24196;-74
2022/06/15 00:44:18;;;;;;;6.10;2.70;;;11.60;99.90;11.00;100520;;;;568973;246;24060;-74
2022/06/15 00:46:54;;;;;;;6.17;3.10;;;11.60;99.90;11.00;100528;;;;573659;246;24052;-73
2022/06/15 00:49:47;;;;;;;6.27;3.23;;;11.60;99.90;11.00;100521;;;;582350;246;24092;-74
2022/06/15 00:52:17;;;;;;;2.73;2.53;;;11.60;99.90;10.90;100517;;;;559262;246;24107;-73
2022/06/15 00:54:44;;;;;;;8.43;2.83;;;11.60;99.90;10.90;100516;;;;572983;246;24107;-74
2022/06/15 00:57:12;;;;;;;8.20;3.03;;;11.60;99.90;10.90;100518;;;;573290;245;24107;-79
2022/06/15 00:59:55;;;;;;;5.30;2.80;;;11.60;99.90;10.90;100516;;;;572949;246;24082;-79
2022/06/15 01:02:27;;;;;;;8.60;3.03;;;11.50;99.90;10.80;100521;;;;568799;246;24067;-79
2022/06/15 01:04:57;;;;;;;4.37;2.53;;;11.50;99.90;10.90;100516;;;;572726;246;24193;-81
2022/06/15 01:07:46;;;;;;;5.40;2.37;;;11.50;99.90;10.90;100512;;;;573085;246;24059;-80
2022/06/15 01:10:21;;;;;;;8.87;3.23;;;11.50;99.90;10.90;100520;;;;572251;246;24102;-80
2022/06/15 01:13:06;;;;;;;5.53;3.10;;;11.50;99.90;10.80;100506;;;;570399;246;24355;-79
2022/06/15 01:15:40;;;;;;;3.17;2.10;;;11.50;99.90;10.80;100512;;;;570275;246;24141;-80
2022/06/15 01:18:11;;;;;;;3.27;2.97;;;11.50;99.90;10.80;100507;;;;572294;246;24196;-78
2022/06/15 01:21:07;;;;;;;2.63;2.30;;;11.50;99.90;10.80;100508;;;;572097;246;24075;-79
2022/06/15 01:24:17;;;;;;;4.27;2.03;;;11.50;99.90;10.80;100516;;;;572698;246;24088;-76
2022/06/15 01:27:00;;;;;;;4.27;2.40;;;11.50;99.90;10.80;100506;;;;572685;246;24123;-81
2022/06/15 01:30:23;;;;;;;5.03;2.47;;;11.40;99.90;10.80;100512;;;;568453;246;24062;-80
2022/06/15 01:33:13;;;;;;;7.20;2.87;;;11.50;99.90;10.80;100512;;;;573110;246;24098;-76
2022/06/15 01:35:46;;;;;;;6.67;2.30;;;11.50;99.90;10.80;100511;;;;568550;246;24126;-78
2022/06/15 01:38:27;;;;;;;7.80;4.25;;;11.40;99.90;10.80;100514;;;;567885;246;35159;-80
2022/06/15 01:41:22;;;;;;;8.70;3.37;;;11.40;99.90;10.80;100511;;;;572240;245;24084;-77
2022/06/15 01:43:53;;;;;;;4.93;2.83;;;11.40;99.90;10.80;100518;;;;572828;246;24060;-80
2022/06/15 01:46:24;;;;;;;2.93;2.60;;;11.40;99.90;10.80;100508;;;;572468;246;24088;-78
2022/06/15 01:48:49;;;;;;;6.33;2.97;;;11.40;99.90;10.80;100514;;;;569366;245;24083;-78
2022/06/15 01:51:17;;;;;;;3.07;2.73;;;11.40;99.90;10.80;100515;;;;574259;246;24066;-75
2022/06/15 01:53:45;;;;;;;6.53;2.63;;;11.40;99.90;10.80;100515;;;;573743;246;24181;-77
2022/06/15 01:56:22;;;;;;;6.23;2.40;;;11.50;99.90;10.80;100510;;;;573322;246;24063;-80
2022/06/15 01:58:53;;;;;;;5.63;3.07;;;11.50;99.90;10.80;100510;;;;573188;246;24114;-77
2022/06/15 02:01:48;;;;;;;9.07;2.43;;;11.40;99.90;10.80;100514;;;;572949;246;24070;-76
2022/06/15 02:04:19;;;;;;;3.90;1.90;;;11.50;99.90;10.90;100507;;;;568868;246;24060;-74
2022/06/15 02:06:52;;;;;;;3.47;2.23;;;11.50;99.90;10.90;100514;;;;568671;246;24113;-78
2022/06/15 02:09:26;;;;;;;7.03;2.47;;;11.50;99.90;10.90;100523;;;;572558;245;24162;-76
2022/06/15 02:11:55;;;;;;;5.87;2.83;;;11.60;99.90;11.00;100518;;;;570251;246;24102;-76
2022/06/15 02:14:31;;;;;;;3.20;2.33;;;11.60;99.90;11.00;100517;;;;572919;246;24076;-80
2022/06/15 02:17:08;;;;;;;5.13;2.70;;;11.60;99.90;11.00;100508;;;;569364;246;24074;-79
2022/06/15 02:19:39;;;;;;;5.07;2.33;;;11.60;99.90;11.00;100520;;;;566320;246;24110;-78
2022/06/15 02:22:07;;;;;;;3.23;2.30;;;11.70;99.90;11.00;100522;;;;581697;245;24117;-79
2022/06/15 02:24:36;;;;;;;5.17;2.70;;;11.70;99.90;11.10;100524;;;;572532;246;24106;-81
2022/06/15 02:27:05;;;;;;;2.67;2.20;;;11.70;99.90;11.10;100522;;;;572801;245;24067;-77
2022/06/15 02:29:34;;;;;;;6.10;3.03;;;11.80;99.90;11.10;100522;;;;572686;246;25164;-74
2022/06/15 02:32:01;;;;;;;9.85;4.10;;;11.70;99.90;11.20;100523;;;;564904;246;35106;-76
2022/06/15 02:34:29;;;;;;;9.70;3.40;;;11.80;99.90;11.30;100528;;;;581751;246;24067;-75
2022/06/15 02:36:57;;;;;;;5.40;3.10;;;11.90;99.90;11.30;100530;;;;581869;246;24118;-75
2022/06/15 02:39:25;;;;;;;4.93;3.03;;;12.00;99.90;11.40;100535;;;;582172;246;24112;-75
2022/06/15 02:42:03;;;;;;;3.73;2.73;;;12.00;99.90;11.40;100527;;;;571601;246;24062;-75
2022/06/15 02:44:30;;;;;;;2.27;2.17;;;12.10;99.90;11.50;100532;;;;568797;246;24068;-74
2022/06/15 02:46:55;;;;;;;4.83;2.63;;;12.20;99.90;11.60;100536;;;;573301;244;24068;-75
2022/06/15 02:49:24;;;;;;;5.93;3.00;;;12.30;99.90;11.60;100538;;;;582007;246;24060;-78
2022/06/15 02:51:55;;;;;;;2.80;2.33;;;12.40;99.90;11.70;100539;;;;582017;246;24024;-75
2022/06/15 02:54:33;;;;;;;4.90;2.87;;;12.30;99.90;11.80;100535;;;;572405;246;24055;-78
2022/06/15 02:57:00;;;;;;;4.93;2.70;;;12.50;99.90;11.90;100539;;;;572784;246;24067;-76
2022/06/15 02:59:29;;;;;;;3.93;2.67;;;12.60;99.90;12.00;100539;;;;582470;245;24056;-77
2022/06/15 03:02:00;;;;;;;4.63;2.50;;;12.60;99.90;12.10;100542;;;;583181;246;24059;-73
2022/06/15 03:04:25;;;;;;;7.30;3.03;;;12.70;99.90;12.20;100541;;;;573826;246;24125;-79
2022/06/15 03:06:57;;;;;;;2.30;2.20;;;12.80;99.90;12.30;100542;;;;569262;246;24059;-78
2022/06/15 03:09:21;;;;;;;3.57;2.43;;;12.90;99.90;12.40;100544;;;;560584;247;24115;-78
2022/06/15 03:11:50;;;;;;;2.77;2.53;;;13.20;99.90;12.60;100543;;;;571420;246;24059;-78
2022/06/15 03:14:18;;;;;;;2.50;2.30;;;13.50;99.90;13.00;100544;;;;582091;246;24096;-78
2022/06/15 03:16:48;;;;;;;4.47;2.43;;;13.50;99.90;13.60;100537;;;;581976;246;24045;-80
2022/06/15 03:19:14;;;;;;;3.40;2.30;;;14.10;99.90;14.30;100549;;;;581817;246;24082;-78
2022/06/15 03:21:42;;;;;;;2.47;2.30;;;14.80;99.90;15.10;100556;;;;573080;246;24063;-79
2022/06/15 03:24:10;;;;;;;2.07;1.90;;;15.50;99.90;15.80;100558;;;;568702;246;24054;-80
2022/06/15 03:26:38;;;;;;;4.70;2.17;;;16.20;99.90;16.40;100551;;;;581953;246;24091;-80
2022/06/15 03:29:06;;;;;;;7.27;2.10;;;16.90;99.90;16.80;100559;;;;573124;246;24157;-79
2022/06/15 03:31:34;;;;;;;4.47;2.00;;;17.40;99.90;17.00;100557;;;;569254;246;24083;-79
2022/06/15 03:34:01;;;;;;;5.40;2.00;;;17.70;99.90;16.70;100552;;;;573174;246;24123;-79
2022/06/15 03:36:29;;;;;;;5.07;2.20;;;17.60;99.90;16.40;100554;;;;571495;246;24070;-78
2022/06/15 03:38:57;;;;;;;4.47;1.70;;;17.30;99.90;16.40;100561;;;;581741;246;24081;-78
2022/06/15 03:41:25;;;;;;;2.50;1.57;;;17.20;99.90;16.50;100557;;;;572926;246;24063;-80
2022/06/15 03:43:54;;;;;;;2.87;1.80;;;17.10;99.90;16.30;100557;;;;581809;246;24110;-79
2022/06/15 03:46:25;;;;;;;3.83;1.80;;;17.10;99.90;16.30;100566;;;;581694;246;24044;-77
2022/06/15 03:48:50;;;;;;;4.70;2.00;;;17.10;99.90;16.50;100556;;;;572858;246;24093;-79
2022/06/15 03:51:18;;;;;;;1.50;1.40;;;17.40;99.90;16.80;100556;;;;569391;246;24089;-79
2022/06/15 03:53:46;;;;;;;2.67;1.40;;;17.30;99.90;17.40;100564;;;;573336;246;24048;-77
2022/06/15 03:56:14;;;;;;;5.20;1.80;;;17.90;99.90;18.30;100567;;;;581929;246;24048;-77
2022/06/15 03:58:42;;;;;;;3.30;1.63;;;18.80;99.90;19.00;100565;;;;581871;246;24066;-79
2022/06/15 04:01:10;;;;;;;2.00;1.80;;;19.60;99.90;19.70;100575;;;;573168;246;24056;-79
2022/06/15 04:03:38;;;;;;;4.43;1.63;;;20.30;99.90;20.50;100565;;;;581914;246;24119;-79
2022/06/15 04:06:06;;;;;;;1.23;1.13;;;21.10;99.90;21.20;100566;;;;581957;246;23081;-82
2022/06/15 04:08:42;;;;;;;2.00;1.40;;;21.80;99.90;21.50;100565;;;;568944;246;24067;-80
2022/06/15 04:13:44;;;;;;;5.60;1.90;;;22.90;99.90;22.80;100569;;;;567285;251;24115;-80
2022/06/15 04:16:12;;;;;;;6.60;1.40;;;24.00;99.90;23.10;100570;;;;571861;246;24091;-82
2022/06/15 04:18:41;;;;;;;3.13;1.40;;;24.60;99.90;23.70;100575;;;;581960;246;24090;-81
2022/06/15 04:21:10;;;;;;;2.60;1.40;;;25.10;98.40;24.30;100583;;;;582041;246;24049;-79
2022/06/15 04:23:38;;;;;;;5.43;1.57;;;25.10;98.40;24.70;100581;;;;582131;246;24079;-74
2022/06/15 04:26:06;;;;;;;2.77;1.63;;;25.60;96.60;25.30;100582;;;;573242;246;23124;-74
2022/06/15 04:28:33;;;;;;;2.50;1.40;;;26.30;93.60;25.90;100589;;;;582078;246;23102;-76
2022/06/15 04:31:01;;;;;;;6.03;2.27;;;26.90;91.60;26.40;100589;;;;570002;246;23082;-75
2022/06/15 04:33:29;;;;;;;8.67;3.80;;;27.50;88.90;26.70;100596;;;;581703;246;23116;-76
2022/06/15 04:35:57;;;;;;;4.17;2.87;;;27.80;85.20;27.10;100594;;;;582053;246;24045;-75
2022/06/15 04:38:25;;;;;;;5.70;2.80;;;28.30;81.10;27.50;100600;;;;572981;246;23134;-76
2022/06/15 04:40:54;;;;;;;4.72;1.92;;;29.30;76.70;28.20;100602;;;;573187;246;24228;-78
2022/06/15 04:43:22;;;;;;;3.35;2.03;;;29.70;71.90;28.50;100609;;;;581856;246;23078;-80
2022/06/15 04:45:50;;;;;;;9.13;2.40;;;29.60;71.70;28.60;100609;;;;582100;246;23138;-78
2022/06/15 04:48:18;;;;;;;3.72;2.10;;;29.80;70.50;29.00;100608;;;;582383;246;23160;-81
2022/06/15 04:50:46;;;;;;;7.82;2.00;;;30.20;69.00;29.70;100612;;;;577920;246;35197;-79
2022/06/15 04:53:14;;;;;;;5.07;1.52;;;30.70;66.50;30.00;100612;;;;582430;246;23058;-75
2022/06/15 04:55:42;;;;;;;4.55;1.75;;;31.20;64.60;30.00;100618;;;;582024;246;23074;-75
2022/06/15 04:58:10;;;;;;;4.32;1.42;;;31.30;62.90;30.10;100625;;;;582019;246;23121;-74
2022/06/15 05:00:40;;;;;;;2.97;1.70;;;31.30;61.40;29.40;100622;;;;573335;246;23116;-74
2022/06/15 05:03:06;;;;;;;6.12;1.77;;;30.80;61.70;28.20;100629;;;;573216;246;23095;-78
2022/06/15 05:05:34;;;;;;;3.92;1.48;;;29.80;63.40;27.70;100630;;;;581920;246;23124;-76
2022/06/15 05:08:02;;;;;;;2.80;1.33;;;28.90;65.80;27.80;100632;;;;573114;246;23113;-76
2022/06/15 05:10:30;;;;;;;3.70;1.75;;;28.80;66.20;27.60;100629;;;;568553;246;23098;-77
2022/06/15 05:12:57;;;;;;;3.90;2.10;;;28.60;65.60;27.20;100645;;;;581633;246;23135;-74
2022/06/15 05:15:25;;;;;;;5.87;3.20;;;28.30;67.00;27.00;100652;;;;572650;246;23105;-76
2022/06/15 05:17:53;;;;;;;7.57;6.77;;;28.00;67.10;26.10;100655;;;;572907;246;23070;-77
2022/06/15 05:20:21;;;;;;;10.20;9.23;;;27.20;68.50;25.60;100651;;;;581642;246;23128;-76
2022/06/15 05:22:55;;;;;;;4.17;1.80;;;26.60;70.50;25.40;100655;;;;573761;246;23122;-73
2022/06/15 05:25:20;;;;;;;5.47;1.30;;;26.30;71.90;26.00;100648;;;;570610;246;23106;-75
2022/06/15 05:27:51;;;;;;;2.73;1.50;;;26.60;72.90;26.90;100651;;;;574455;246;24079;-75
2022/06/15 05:30:16;;;;;;;5.40;1.40;;;27.40;71.50;27.60;100656;;;;582972;245;23095;-78
2022/06/15 05:32:45;;;;;;;4.40;1.43;;;28.40;67.30;27.70;100655;;;;582774;239;24079;-76
2022/06/15 05:35:13;;;;;;;2.80;1.50;;;28.40;67.70;27.70;100655;;;;582433;246;24098;-79
2022/06/15 05:37:41;;;;;;;7.20;1.70;;;28.40;66.90;28.10;100660;;;;573348;246;23159;-80
2022/06/15 05:40:09;;;;;;;3.43;1.47;;;28.80;66.00;28.40;100660;;;;573427;246;23069;-81
2022/06/15 05:42:37;;;;;;;2.23;1.30;;;29.10;64.70;29.10;100658;;;;568710;246;23090;-79
2022/06/15 05:45:05;;;;;;;2.17;1.30;;;29.70;64.20;30.20;100658;;;;582130;246;23087;-80
2022/06/15 05:47:33;;;;;;;4.22;1.40;;;30.60;63.20;31.70;100665;;;;573121;246;23196;-78
2022/06/15 05:50:01;;;;;;;2.12;1.20;;;32.00;59.40;32.60;100660;;;;581695;246;23188;-82
2022/06/15 05:52:29;;;;;;;3.50;1.23;;;33.10;57.00;32.80;100661;;;;573171;246;23141;-80
2022/06/15 05:54:58;;;;;;;2.95;1.40;;;33.60;55.00;33.30;100671;;;;581849;246;23074;-82
2022/06/15 05:57:25;;;;;;;3.58;1.40;;;33.90;54.30;34.00;100672;;;;581936;240;23101;-79
2022/06/15 05:59:53;;;;;;;3.75;1.30;;;34.70;52.50;33.60;100672;;;;569939;246;23124;-80
2022/06/15 06:02:21;;;;;;;2.37;1.27;;;34.40;52.00;33.10;100678;;;;572577;246;24088;-76
2022/06/15 06:04:49;;;;;;;2.62;1.73;;;34.10;52.50;33.50;100685;;;;572765;246;23112;-78
2022/06/15 06:07:17;;;;;;;3.87;1.25;;;34.20;52.40;33.50;100692;;;;572649;246;23087;-77
2022/06/15 06:09:44;;;;;;;4.25;1.40;;;34.20;51.50;33.30;100684;;;;563521;246;35133;-79
2022/06/15 06:12:12;;;;;;;3.35;1.50;;;34.00;51.70;33.10;100682;;;;568256;246;23167;-79
2022/06/15 06:14:42;;;;;;;3.33;1.30;;;33.90;52.30;33.30;100682;;;;581637;246;24220;-74
2022/06/15 06:17:12;;;;;;;3.22;1.15;;;33.90;51.60;33.50;100682;;;;576425;246;35048;-74
2022/06/15 06:19:36;;;;;;;3.37;1.30;;;34.10;51.10;33.00;100682;;;;572693;246;23074;-81
2022/06/15 06:22:05;;;;;;;2.10;1.10;;;33.10;51.90;32.20;100690;;;;572853;246;24093;-80
2022/06/15 06:24:33;;;;;;;1.77;1.17;;;32.30;52.90;31.50;100692;;;;581516;246;23086;-77
2022/06/15 06:27:02;;;;;;;2.53;1.12;;;31.60;53.60;30.70;100693;;;;581636;246;23155;-78
2022/06/15 06:29:30;;;;;;;3.87;1.08;;;31.60;53.60;30.00;100693;;;;572639;244;23085;-80
2022/06/15 06:32:01;;;;;;;4.18;1.30;;;30.80;54.80;29.40;100701;;;;572667;246;23066;-80
2022/06/15 06:34:29;;;;;;;3.22;1.25;;;30.10;56.00;28.70;100695;;;;573269;246;23075;-79
2022/06/15 06:36:54;;;;;;;2.15;1.10;;;29.50;57.00;28.90;100695;;;;582516;244;23112;-81
2022/06/15 06:39:22;;;;;;;3.53;1.27;;;29.40;57.90;30.00;100688;;;;582432;245;23099;-81
2022/06/15 06:41:50;;;;;;;3.97;1.15;;;30.00;57.30;31.20;100696;;;;573247;246;23077;-80
2022/06/15 06:44:18;;;;;;;1.70;1.52;;;31.20;55.70;32.00;100694;;;;582507;246;23124;-81
2022/06/15 06:46:49;;;;;;;2.47;0.85;;;32.20;53.80;32.40;100703;;;;571564;246;23070;-76
2022/06/15 06:49:13;;;;;;;7.82;1.20;;;32.70;52.50;32.70;100709;;;;572881;246;23100;-78
2022/06/15 06:51:42;;;;;;;1.83;1.02;;;33.30;50.90;32.80;100703;;;;573889;246;23102;-80
2022/06/15 06:54:10;;;;;;;3.25;1.12;;;33.20;50.80;32.90;100708;;;;569387;245;23062;-78
2022/06/15 06:56:38;;;;;;;1.37;1.15;;;33.40;50.70;32.60;100715;;;;573108;246;23119;-81
2022/06/15 06:59:06;;;;;;;3.62;1.00;;;33.20;50.70;31.70;100712;;;;568690;246;23069;-80
2022/06/15 07:01:36;;;;;;;3.72;0.90;;;32.50;49.90;30.90;100708;;;;569911;246;23094;-80
2022/06/15 07:04:04;;;;;;;1.00;0.80;;;31.70;50.60;29.90;100716;;;;573056;246;23100;-77
2022/06/15 07:06:32;;;;;;;3.17;0.77;;;30.80;51.20;29.40;100713;;;;568841;246;23106;-75
2022/06/15 07:09:01;;;;;;;1.95;0.95;;;30.10;53.30;29.80;100711;;;;582160;246;24099;-78
2022/06/15 07:11:29;;;;;;;1.08;0.90;;;30.10;53.60;29.70;100714;;;;569094;246;23066;-77
2022/06/15 07:13:57;;;;;;;2.90;1.02;;;30.10;53.60;29.60;100716;;;;568473;246;24124;-76
2022/06/15 07:16:25;;;;;;;3.50;0.88;;;30.00;53.80;29.70;100717;;;;572922;246;23070;-82
2022/06/15 07:18:53;;;;;;;3.22;1.12;;;30.00;54.20;31.10;100720;;;;581871;246;24115;-81
2022/06/15 07:21:21;;;;;;;1.52;1.00;;;31.10;53.10;31.80;100723;;;;581574;246;24081;-81
2022/06/15 07:23:49;;;;;;;2.45;0.98;;;32.20;51.50;31.90;100723;;;;568412;246;24080;-82
2022/06/15 07:26:18;;;;;;;1.40;0.90;;;33.20;51.00;33.10;100727;;;;569926;246;24115;-80
2022/06/15 07:28:47;;;;;;;1.62;1.10;;;34.60;49.70;34.80;100730;;;;571951;244;23100;-78
2022/06/15 07:31:21;;;;;;;3.00;0.95;;;34.60;49.40;36.90;100729;;;;569153;246;23100;-78
2022/06/15 07:33:52;;;;;;;2.65;1.02;;;36.70;47.30;37.70;100733;;;;572537;246;23154;-77
2022/06/15 07:36:17;;;;;;;1.17;0.82;;;37.80;45.30;37.80;100732;;;;572185;246;24100;-80
2022/06/15 07:38:45;;;;;;;1.25;0.80;;;38.20;43.80;37.50;100739;;;;571042;246;23114;-77
2022/06/15 07:41:13;;;;;;;1.75;0.90;;;37.90;43.00;37.40;100740;;;;572764;246;23098;-77
2022/06/15 07:43:42;;;;;;;2.45;1.20;;;37.60;43.00;37.00;100734;;;;573035;246;24087;-78
2022/06/15 07:46:11;;;;;;;1.48;1.02;;;37.60;43.00;36.80;100744;;;;573643;246;23104;-74
2022/06/15 07:51:34;;;;;;;1.00;0.90;;;37.30;42.90;37.40;100747;;;;569734;246;23062;-79
2022/06/15 07:54:03;;;;;;;9.30;1.65;;;37.60;43.20;37.90;100752;;;;582299;246;23253;-75
2022/06/15 07:56:30;;;;;;;2.00;1.27;;;38.00;42.80;38.60;100753;;;;581729;246;23102;-80
2022/06/15 07:58:58;;;;;;;1.40;1.00;;;38.70;42.60;38.90;100747;;;;582143;246;23114;-82
2022/06/15 08:01:27;;;;;;;1.37;1.10;;;39.90;40.60;39.80;100761;;;;573306;246;23097;-83
2022/06/15 08:03:56;;;;;;;2.58;1.30;;;40.10;39.20;39.70;100749;;;;582233;246;23168;-79
2022/06/15 08:06:23;;;;;;;1.58;1.02;;;40.10;39.20;39.70;100757;;;;573019;246;23058;-82
2022/06/15 08:08:51;;;;;;;1.17;1.00;;;40.20;39.30;39.40;100755;;;;573005;246;23157;-81
2022/06/15 08:11:19;;;;;;;2.17;0.90;;;40.00;38.60;38.90;100761;;;;573100;246;23195;-80
2022/06/15 08:13:47;;;;;;;1.67;0.93;;;39.50;38.90;39.40;100756;;;;581693;246;23100;-82
2022/06/15 08:16:19;;;;;;;2.80;0.82;;;39.70;39.80;40.60;100752;;;;572915;246;23116;-79
2022/06/15 08:18:52;;;;;;;4.40;1.37;;;40.60;39.40;41.80;100750;;;;572713;246;23181;-81
2022/06/15 08:21:22;;;;;;;1.75;0.75;;;41.90;38.70;42.00;100773;;;;573251;246;23118;-81
2022/06/15 08:23:51;;;;;;;0.90;0.90;;;41.60;36.80;40.90;100773;;;;580811;246;23089;-82
2022/06/15 08:26:19;;;;;;;2.05;1.10;;;41.70;37.50;41.40;100774;;;;568735;246;24341;-80
2022/06/15 08:28:47;;;;;;;2.78;1.05;;;41.90;36.90;41.50;100772;;;;572554;245;23101;-82
2022/06/15 08:31:15;;;;;;;2.92;1.10;;;42.00;37.10;42.50;100772;;;;572485;246;23141;-76
2022/06/15 08:33:43;;;;;;;1.77;1.12;;;42.60;36.50;43.40;100768;;;;581614;246;24217;-76
2022/06/15 08:36:14;;;;;;;1.27;1.17;;;43.60;35.90;44.00;100782;;;;572761;246;23063;-75
2022/06/15 08:38:38;;;;;;;6.60;1.60;;;44.20;35.90;44.50;100776;;;;581522;245;23181;-82
2022/06/15 08:41:22;;;;;;;2.55;1.40;;;44.90;34.30;44.60;100776;;;;581629;246;24117;-81
2022/06/15 08:43:55;;;;;;;1.65;1.20;;;45.30;33.50;44.80;100778;;;;572588;246;23080;-83
2022/06/15 08:46:54;;;;;;;1.30;1.00;;;45.40;33.20;44.90;100784;;;;559390;250;23161;-82
2022/06/15 08:49:47;;;;;;;2.28;1.25;;;46.00;32.60;45.60;100783;;;;557655;246;23171;-81
2022/06/15 08:52:15;;;;;;;1.33;0.70;;;46.00;32.60;45.70;100779;;;;573209;246;23101;-83
2022/06/15 08:54:55;;;;;;;2.15;1.52;;;46.40;32.60;45.70;100791;;;;572463;246;23084;-82
2022/06/15 08:57:31;;;;;;;3.22;0.90;;;46.40;32.40;45.50;100792;;;;569848;246;23113;-81
2022/06/15 09:00:05;;;;;;;5.35;1.20;;;46.10;32.10;45.30;100794;;;;569191;245;35057;-77
2022/06/15 09:02:47;;;;;;;1.30;1.30;;;46.20;31.20;45.00;100796;;;;569648;246;23075;-82
2022/06/15 09:05:27;;;;;;;0.90;0.88;;;45.80;32.60;45.00;100798;;;;569162;246;23176;-81
2022/06/15 09:08:20;;;;;;;1.95;0.90;;;45.80;32.60;44.40;100793;;;;582126;246;23078;-78
2022/06/15 09:11:21;;;;;;;1.60;1.12;;;45.50;32.20;43.50;100797;;;;573909;246;23086;-77
2022/06/15 09:14:04;;;;;;;1.58;1.08;;;44.70;33.10;42.50;100799;;;;573904;246;23159;-76
2022/06/15 09:17:09;;;;;;;1.50;1.40;;;43.40;33.70;42.80;100799;;;;569351;246;23077;-77
2022/06/15 09:19:37;;;;;;;2.37;0.90;;;43.40;33.70;43.40;100792;;;;573116;246;23073;-79
2022/06/15 09:22:06;;;;;;;3.70;1.10;;;44.30;33.80;43.70;100794;;;;572693;246;24149;-80
2022/06/15 09:24:37;;;;;;;1.80;1.10;;;44.30;33.80;43.60;100793;;;;572996;246;24162;-82
2022/06/15 09:27:08;;;;;;;1.75;0.90;;;44.40;33.80;44.50;100794;;;;573017;246;23182;-81
2022/06/15 09:29:36;;;;;;;1.00;0.90;;;45.20;33.40;46.10;100791;;;;581381;246;23078;-79
2022/06/15 09:32:25;;;;;;;1.70;1.60;;;46.60;32.80;48.00;100796;;;;563642;246;45971;-77
2022/06/15 09:35:09;;;;;;;4.40;2.10;;;48.00;31.00;46.30;100803;;;;572946;246;23145;-81
2022/06/15 09:37:40;;;;;;;6.70;1.90;;;45.50;31.50;43.30;100812;;;;572681;245;23151;-79
2022/06/15 09:40:06;;;;;;;2.50;1.30;;;42.80;33.30;40.60;100810;;;;572798;246;23097;-76
2022/06/15 09:43:02;;;;;;;1.00;1.00;;;42.70;33.20;39.90;100805;;;;572586;245;23110;-81
2022/06/15 09:45:31;;;;;;;1.10;1.00;;;40.40;36.30;39.40;100807;;;;572831;246;23102;-77
2022/06/15 09:48:20;;;;;;;1.90;1.05;;;39.40;37.80;38.50;100807;;;;568862;246;24156;-75
2022/06/15 09:50:57;;;;;;;1.55;0.98;;;39.30;37.70;39.30;100805;;;;580971;240;23127;-76
2022/06/15 09:54:11;;;;;;;1.33;1.10;;;39.70;37.90;41.10;100805;;;;573054;246;23135;-76
2022/06/15 09:56:42;;;;;;;17.65;2.80;;;41.40;36.30;42.60;100807;;;;573213;245;23124;-76
2022/06/15 09:59:07;;;;;;;3.80;1.15;;;43.10;34.60;43.90;100809;;;;567747;246;23077;-78
2022/06/15 10:01:39;;;;;;;2.47;1.10;;;44.30;34.00;44.20;100812;;;;572538;246;23139;-78
2022/06/15 10:04:06;;;;;;;1.65;1.20;;;45.10;32.30;44.50;100819;;;;581468;245;23123;-76
2022/06/15 10:06:43;;;;;;;1.40;0.88;;;46.20;31.70;45.30;100816;;;;570182;246;23073;-74
2022/06/15 10:09:14;;;;;;;1.35;0.80;;;46.10;31.60;46.10;100817;;;;570578;246;23069;-75
2022/06/15 10:11:51;;;;;;;1.00;0.82;;;47.10;30.80;45.90;100812;;;;574312;246;23065;-76
2022/06/15 10:14:23;;;;;;;1.50;1.02;;;47.30;30.80;46.10;100825;;;;577653;245;35004;-75
2022/06/15 10:16:56;;;;;;;0.85;0.85;;;47.60;30.90;46.10;100823;;;;569965;246;23077;-77
2022/06/15 10:19:24;;;;;;;2.22;1.20;;;47.50;31.10;46.20;100835;;;;573566;246;24197;-75
2022/06/15 10:21:52;;;;;;;1.50;1.20;;;47.50;31.40;45.70;100829;;;;582604;246;23076;-75
2022/06/15 10:24:26;;;;;;;6.50;1.25;;;47.20;30.60;45.30;100826;;;;573852;245;23080;-75
2022/06/15 10:26:53;;;;;;;1.75;0.82;;;46.70;31.10;44.90;100832;;;;573766;246;23055;-78
2022/06/15 10:29:27;;;;;;;1.08;1.00;;;46.30;31.40;44.10;100836;;;;570641;245;23152;-80
2022/06/15 10:32:00;;;;;;;2.87;1.10;;;45.50;31.70;43.30;100835;;;;581762;246;23069;-78
2022/06/15 10:34:31;;;;;;;1.17;1.08;;;44.70;32.40;42.20;100824;;;;569379;246;23071;-82
2022/06/15 10:36:59;;;;;;;4.30;1.37;;;43.60;33.50;41.50;100823;;;;581982;246;23179;-79
2022/06/15 10:39:27;;;;;;;4.22;1.25;;;42.80;33.80;40.10;100822;;;;573286;246;23139;-79
2022/06/15 10:41:58;;;;;;;1.20;1.10;;;41.40;35.60;39.20;100821;;;;572619;246;23167;-82
2022/06/15 10:44:40;;;;;;;1.00;0.90;;;40.20;35.90;38.10;100829;;;;572709;246;23073;-79
2022/06/15 10:47:20;;;;;;;1.55;1.02;;;38.80;37.20;36.70;100822;;;;572423;246;24126;-78
2022/06/15 10:50:00;;;;;;;1.52;1.00;;;37.30;38.80;35.80;100833;;;;572930;246;24146;-78
2022/06/15 10:52:37;;;;;;;1.10;0.55;;;36.10;39.70;34.40;100827;;;;569339;246;23071;-77
2022/06/15 11:03:39;;;;;;;5.57;1.30;;;30.70;46.30;30.20;100814;;;;568987;246;23136;-76
2022/06/15 11:06:07;;;;;;;2.72;1.23;;;30.20;48.80;29.90;100816;;;;582065;246;23089;-74
2022/06/15 11:08:35;;;;;;;1.48;1.05;;;29.90;49.30;29.50;100805;;;;573231;245;23101;-77
2022/06/15 11:11:12;;;;;;;1.40;0.90;;;29.50;48.20;29.10;100808;;;;568825;246;23078;-74
2022/06/15 11:13:57;;;;;;;5.33;1.00;;;29.20;49.40;28.70;100814;;;;572798;246;23081;-75
2022/06/15 11:19:21;;;;;;;17.23;2.53;;;28.50;51.10;27.60;100807;;;;568976;246;23089;-74
2022/06/15 11:21:57;;;;;;;5.60;1.03;;;28.00;51.40;27.00;100810;;;;574427;246;24122;-75
2022/06/15 11:24:29;;;;;;;6.57;1.40;;;26.70;53.10;26.30;100806;;;;569334;246;23238;-75
2022/06/15 11:27:01;;;;;;;2.67;0.80;;;26.60;53.10;25.90;100807;;;;573609;246;24143;-76
2022/06/15 11:29:46;;;;;;;1.57;0.80;;;26.20;53.50;25.50;100797;;;;573039;245;24045;-79
2022/06/15 11:32:53;;;;;;;0.87;0.47;;;25.80;54.80;25.20;100800;;;;573599;246;23085;-81
2022/06/15 11:35:27;;;;;;;2.47;0.77;;;25.50;55.00;25.00;100793;;;;573206;246;24094;-80
2022/06/15 11:37:59;;;;;;;4.20;2.00;;;25.20;56.00;24.90;100792;;;;571203;246;23090;-78
2022/06/15 11:40:47;;;;;;;2.17;0.73;;;25.10;55.90;24.80;100779;;;;572247;246;24052;-78
2022/06/15 11:43:20;;;;;;;1.67;1.00;;;25.10;56.40;24.90;100785;;;;573224;246;25138;-80
2022/06/15 11:46:26;;;;;;;1.07;0.87;;;25.20;58.30;24.90;100785;;;;573381;246;24119;-76
2022/06/15 11:49:11;;;;;;;1.77;0.70;;;25.20;57.80;24.90;100789;;;;573707;246;24066;-76